首页
METAR-TAF:

METAR-TAF

机场 :

里斯本, 葡萄牙

温贝托·德尔加多机场

纬度: 38-46N, 经度: 009-08W, 海拔: 114米

当前天气观测

该预报发布于24分钟前的06:30 UTC
风速15节,风向北转西北
温度 14°C
湿度 82%
气压 1017 hPa
能见度10公里或以上
少量云层高于1000英尺

METAR: LPPT 250630Z 33015KT 9999 FEW010 14/11 Q1017

时间: 07:54 (06:54 UTC)

预报

该预报发布于1小时和54分钟前的05:00 UTC
预报有效从25日的 06点(UTC)到 26日的 12点(UTC)
风速17节,风向北转西北
能见度10公里或以上
少量云层高于1000英尺
短暂存在
从 25日的 06点(UTC)到 25日的 24点(UTC)
风速22节,风向北转西北,有时为35节阵风
几率 30% :
短暂存在
从 25日的 06点(UTC)到 25日的 08点(UTC)
多云层高于1000英尺
成为
从 25日的 09点(UTC)到 25日的 11点(UTC)
能见度10公里或以上
1500米以下无云,无积雨云
成为
从 26日的 08点(UTC)到 26日的 10点(UTC)
风速8节,风向北转西北

TAF: LPPT 250500Z 2506/2612 33017KT 9999 FEW010 TEMPO 2506/2524 33022G35KT PROB30 TEMPO 2506/2508 BKN010 BECMG 2509/2511 CAVOK BECMG 2608/2610 33008KT

超过4000个机场的气象观测和天气预报(METAR&TAF报告)。

可查询的气象台以黄色和红色小点在地图上表示。

将鼠标移到小点上方,可查看气象台名称。

然后点击查看天气观测和预报。

如需切换地图:点击带黑十字的绿色按钮放大地图;点击带横线的绿色按钮缩小地图;或者点击绿色箭头查看邻近地区的地图。


METAR-TAF: